sensor_id;sensor_type;location;lat;lon;timestamp;P1;durP1;ratioP1;P2;durP2;ratioP2
69569;SDS011;56781;42.292;23.146;2022-10-28T00:01:25;7.30;;;2.83;;
69569;SDS011;56781;42.292;23.146;2022-10-28T00:03:53;7.65;;;3.10;;
69569;SDS011;56781;42.292;23.146;2022-10-28T00:06:25;7.25;;;2.88;;
69569;SDS011;56781;42.292;23.146;2022-10-28T00:08:55;8.37;;;3.50;;
69569;SDS011;56781;42.292;23.146;2022-10-28T00:11:24;8.27;;;3.33;;
69569;SDS011;56781;42.292;23.146;2022-10-28T00:13:53;7.78;;;3.15;;
69569;SDS011;56781;42.292;23.146;2022-10-28T00:16:23;9.00;;;3.50;;
69569;SDS011;56781;42.292;23.146;2022-10-28T00:18:55;8.68;;;3.10;;
69569;SDS011;56781;42.292;23.146;2022-10-28T00:21:26;6.33;;;2.83;;
69569;SDS011;56781;42.292;23.146;2022-10-28T00:23:54;9.75;;;2.92;;
69569;SDS011;56781;42.292;23.146;2022-10-28T00:26:23;7.65;;;3.10;;
69569;SDS011;56781;42.292;23.146;2022-10-28T00:28:52;7.57;;;2.88;;
69569;SDS011;56781;42.292;23.146;2022-10-28T00:31:24;9.02;;;3.05;;
69569;SDS011;56781;42.292;23.146;2022-10-28T00:33:53;7.73;;;3.30;;
69569;SDS011;56781;42.292;23.146;2022-10-28T00:36:22;7.38;;;2.85;;
69569;SDS011;56781;42.292;23.146;2022-10-28T00:38:52;7.40;;;2.85;;
69569;SDS011;56781;42.292;23.146;2022-10-28T00:41:21;10.23;;;3.03;;
69569;SDS011;56781;42.292;23.146;2022-10-28T00:43:55;6.38;;;3.05;;
69569;SDS011;56781;42.292;23.146;2022-10-28T00:46:29;10.17;;;3.20;;
69569;SDS011;56781;42.292;23.146;2022-10-28T00:49:03;7.70;;;3.10;;
69569;SDS011;56781;42.292;23.146;2022-10-28T00:51:36;8.27;;;3.25;;
69569;SDS011;56781;42.292;23.146;2022-10-28T00:54:04;8.15;;;2.97;;
69569;SDS011;56781;42.292;23.146;2022-10-28T00:56:34;6.95;;;2.90;;
69569;SDS011;56781;42.292;23.146;2022-10-28T00:59:06;7.43;;;2.77;;
69569;SDS011;56781;42.292;23.146;2022-10-28T01:01:38;6.75;;;2.95;;
69569;SDS011;56781;42.292;23.146;2022-10-28T01:04:06;8.25;;;2.72;;
69569;SDS011;56781;42.292;23.146;2022-10-28T01:06:34;7.43;;;2.78;;
69569;SDS011;56781;42.292;23.146;2022-10-28T01:09:01;7.75;;;2.85;;
69569;SDS011;56781;42.292;23.146;2022-10-28T01:20:24;7.88;;;3.00;;
69569;SDS011;56781;42.292;23.146;2022-10-28T01:33:42;8.15;;;2.60;;
69569;SDS011;56781;42.292;23.146;2022-10-28T01:36:15;8.02;;;2.67;;
69569;SDS011;56781;42.292;23.146;2022-10-28T01:39:23;6.47;;;2.83;;
69569;SDS011;56781;42.292;23.146;2022-10-28T01:41:54;7.53;;;2.60;;
69569;SDS011;56781;42.292;23.146;2022-10-28T01:47:27;7.50;;;2.53;;
69569;SDS011;56781;42.292;23.146;2022-10-28T01:50:06;7.30;;;2.35;;
69569;SDS011;56781;42.292;23.146;2022-10-28T01:52:37;6.13;;;2.50;;
69569;SDS011;56781;42.292;23.146;2022-10-28T01:55:12;8.07;;;2.90;;
69569;SDS011;56781;42.292;23.146;2022-10-28T01:57:46;5.70;;;2.50;;
69569;SDS011;56781;42.292;23.146;2022-10-28T02:00:17;6.55;;;2.55;;
69569;SDS011;56781;42.292;23.146;2022-10-28T02:02:45;10.93;;;2.72;;
69569;SDS011;56781;42.292;23.146;2022-10-28T02:16:26;8.13;;;2.70;;
69569;SDS011;56781;42.292;23.146;2022-10-28T02:19:05;10.23;;;2.93;;
69569;SDS011;56781;42.292;23.146;2022-10-28T02:24:39;7.70;;;2.78;;
69569;SDS011;56781;42.292;23.146;2022-10-28T02:27:33;8.05;;;2.63;;
69569;SDS011;56781;42.292;23.146;2022-10-28T02:30:20;7.35;;;2.78;;
69569;SDS011;56781;42.292;23.146;2022-10-28T02:32:54;7.67;;;2.97;;
69569;SDS011;56781;42.292;23.146;2022-10-28T02:35:41;7.53;;;2.47;;
69569;SDS011;56781;42.292;23.146;2022-10-28T02:38:19;5.90;;;2.38;;
69569;SDS011;56781;42.292;23.146;2022-10-28T02:40:52;7.90;;;2.60;;
69569;SDS011;56781;42.292;23.146;2022-10-28T02:43:23;5.93;;;2.45;;
69569;SDS011;56781;42.292;23.146;2022-10-28T02:45:53;6.00;;;2.90;;
69569;SDS011;56781;42.292;23.146;2022-10-28T02:48:27;6.68;;;2.83;;
69569;SDS011;56781;42.292;23.146;2022-10-28T02:51:00;6.45;;;2.63;;
69569;SDS011;56781;42.292;23.146;2022-10-28T02:53:32;7.22;;;2.70;;
69569;SDS011;56781;42.292;23.146;2022-10-28T02:56:08;5.40;;;2.30;;
69569;SDS011;56781;42.292;23.146;2022-10-28T02:58:39;8.10;;;3.10;;
69569;SDS011;56781;42.292;23.146;2022-10-28T03:01:06;6.63;;;2.22;;
69569;SDS011;56781;42.292;23.146;2022-10-28T03:03:34;7.28;;;2.63;;
69569;SDS011;56781;42.292;23.146;2022-10-28T03:06:01;6.35;;;2.60;;
69569;SDS011;56781;42.292;23.146;2022-10-28T03:08:28;6.50;;;2.45;;
69569;SDS011;56781;42.292;23.146;2022-10-28T03:10:55;5.50;;;2.30;;
69569;SDS011;56781;42.292;23.146;2022-10-28T03:13:22;7.03;;;2.92;;
69569;SDS011;56781;42.292;23.146;2022-10-28T03:15:49;6.18;;;2.30;;
69569;SDS011;56781;42.292;23.146;2022-10-28T03:18:16;7.57;;;2.90;;
69569;SDS011;56781;42.292;23.146;2022-10-28T03:20:43;7.32;;;3.50;;
69569;SDS011;56781;42.292;23.146;2022-10-28T03:23:10;7.57;;;4.03;;
69569;SDS011;56781;42.292;23.146;2022-10-28T03:25:37;9.90;;;3.80;;
69569;SDS011;56781;42.292;23.146;2022-10-28T03:28:04;8.98;;;2.97;;
69569;SDS011;56781;42.292;23.146;2022-10-28T03:30:31;7.57;;;2.85;;
69569;SDS011;56781;42.292;23.146;2022-10-28T03:32:59;8.35;;;2.63;;
69569;SDS011;56781;42.292;23.146;2022-10-28T03:35:26;6.33;;;2.50;;
69569;SDS011;56781;42.292;23.146;2022-10-28T03:37:53;7.68;;;2.83;;
69569;SDS011;56781;42.292;23.146;2022-10-28T03:40:20;9.20;;;3.30;;
69569;SDS011;56781;42.292;23.146;2022-10-28T03:42:47;5.57;;;2.72;;
69569;SDS011;56781;42.292;23.146;2022-10-28T03:45:14;6.45;;;2.58;;
69569;SDS011;56781;42.292;23.146;2022-10-28T03:47:41;7.53;;;2.90;;
69569;SDS011;56781;42.292;23.146;2022-10-28T03:50:08;5.82;;;2.58;;
69569;SDS011;56781;42.292;23.146;2022-10-28T03:52:36;7.97;;;2.95;;
69569;SDS011;56781;42.292;23.146;2022-10-28T03:55:03;8.52;;;3.08;;
69569;SDS011;56781;42.292;23.146;2022-10-28T03:57:31;7.80;;;3.50;;
69569;SDS011;56781;42.292;23.146;2022-10-28T03:59:59;6.83;;;3.37;;
69569;SDS011;56781;42.292;23.146;2022-10-28T04:02:26;10.88;;;2.75;;
69569;SDS011;56781;42.292;23.146;2022-10-28T04:04:53;7.22;;;2.63;;
69569;SDS011;56781;42.292;23.146;2022-10-28T04:07:20;7.18;;;2.90;;
69569;SDS011;56781;42.292;23.146;2022-10-28T04:09:47;9.57;;;3.30;;
69569;SDS011;56781;42.292;23.146;2022-10-28T04:12:17;9.80;;;3.20;;
69569;SDS011;56781;42.292;23.146;2022-10-28T04:14:44;6.78;;;2.72;;
69569;SDS011;56781;42.292;23.146;2022-10-28T04:17:11;10.23;;;3.25;;
69569;SDS011;56781;42.292;23.146;2022-10-28T04:19:38;7.15;;;2.83;;
69569;SDS011;56781;42.292;23.146;2022-10-28T04:22:05;8.27;;;2.67;;
69569;SDS011;56781;42.292;23.146;2022-10-28T04:24:34;20.97;;;5.17;;
69569;SDS011;56781;42.292;23.146;2022-10-28T04:27:01;8.02;;;2.90;;
69569;SDS011;56781;42.292;23.146;2022-10-28T04:29:28;15.25;;;3.28;;
69569;SDS011;56781;42.292;23.146;2022-10-28T04:31:55;7.97;;;2.75;;
69569;SDS011;56781;42.292;23.146;2022-10-28T04:34:22;7.55;;;3.05;;
69569;SDS011;56781;42.292;23.146;2022-10-28T04:36:49;9.67;;;3.57;;
69569;SDS011;56781;42.292;23.146;2022-10-28T04:39:17;8.00;;;3.38;;
69569;SDS011;56781;42.292;23.146;2022-10-28T04:41:44;7.95;;;3.35;;
69569;SDS011;56781;42.292;23.146;2022-10-28T04:44:11;9.75;;;3.33;;
69569;SDS011;56781;42.292;23.146;2022-10-28T04:46:38;10.25;;;3.50;;
69569;SDS011;56781;42.292;23.146;2022-10-28T04:49:05;10.70;;;3.13;;
69569;SDS011;56781;42.292;23.146;2022-10-28T04:51:32;8.90;;;3.45;;
69569;SDS011;56781;42.292;23.146;2022-10-28T04:53:59;6.45;;;2.92;;
69569;SDS011;56781;42.292;23.146;2022-10-28T04:56:26;12.20;;;3.70;;
69569;SDS011;56781;42.292;23.146;2022-10-28T04:58:54;10.32;;;3.30;;
69569;SDS011;56781;42.292;23.146;2022-10-28T05:01:21;11.03;;;3.23;;
69569;SDS011;56781;42.292;23.146;2022-10-28T05:03:51;16.05;;;5.45;;
69569;SDS011;56781;42.292;23.146;2022-10-28T05:06:18;8.07;;;3.35;;
69569;SDS011;56781;42.292;23.146;2022-10-28T05:08:45;7.82;;;3.08;;
69569;SDS011;56781;42.292;23.146;2022-10-28T05:11:12;8.38;;;3.20;;
69569;SDS011;56781;42.292;23.146;2022-10-28T05:13:39;16.67;;;3.80;;
69569;SDS011;56781;42.292;23.146;2022-10-28T05:16:07;10.15;;;3.70;;
69569;SDS011;56781;42.292;23.146;2022-10-28T05:18:34;10.65;;;4.15;;
69569;SDS011;56781;42.292;23.146;2022-10-28T05:21:01;11.52;;;4.10;;
69569;SDS011;56781;42.292;23.146;2022-10-28T05:23:28;8.63;;;2.97;;
69569;SDS011;56781;42.292;23.146;2022-10-28T05:25:56;7.30;;;3.07;;
69569;SDS011;56781;42.292;23.146;2022-10-28T05:28:23;7.00;;;2.95;;
69569;SDS011;56781;42.292;23.146;2022-10-28T05:30:50;7.55;;;3.60;;
69569;SDS011;56781;42.292;23.146;2022-10-28T05:33:17;7.47;;;3.17;;
69569;SDS011;56781;42.292;23.146;2022-10-28T05:35:44;9.10;;;3.10;;
69569;SDS011;56781;42.292;23.146;2022-10-28T05:38:12;9.40;;;2.87;;
69569;SDS011;56781;42.292;23.146;2022-10-28T05:40:39;7.60;;;3.10;;
69569;SDS011;56781;42.292;23.146;2022-10-28T05:43:06;12.25;;;4.32;;
69569;SDS011;56781;42.292;23.146;2022-10-28T05:45:34;29.85;;;8.25;;
69569;SDS011;56781;42.292;23.146;2022-10-28T05:48:02;23.98;;;7.22;;
69569;SDS011;56781;42.292;23.146;2022-10-28T05:50:29;34.43;;;9.50;;
69569;SDS011;56781;42.292;23.146;2022-10-28T05:52:56;28.70;;;9.30;;
69569;SDS011;56781;42.292;23.146;2022-10-28T05:55:25;27.25;;;8.90;;
69569;SDS011;56781;42.292;23.146;2022-10-28T05:57:55;23.10;;;8.73;;
69569;SDS011;56781;42.292;23.146;2022-10-28T06:00:24;25.35;;;8.70;;
69569;SDS011;56781;42.292;23.146;2022-10-28T06:02:52;19.10;;;7.27;;
69569;SDS011;56781;42.292;23.146;2022-10-28T06:05:19;21.23;;;7.90;;
69569;SDS011;56781;42.292;23.146;2022-10-28T06:07:46;23.15;;;7.82;;
69569;SDS011;56781;42.292;23.146;2022-10-28T06:10:13;19.88;;;6.22;;
69569;SDS011;56781;42.292;23.146;2022-10-28T06:12:40;17.67;;;6.00;;
69569;SDS011;56781;42.292;23.146;2022-10-28T06:15:07;21.83;;;5.40;;
69569;SDS011;56781;42.292;23.146;2022-10-28T06:17:37;16.35;;;6.28;;
69569;SDS011;56781;42.292;23.146;2022-10-28T06:20:04;24.40;;;6.80;;
69569;SDS011;56781;42.292;23.146;2022-10-28T06:22:32;20.83;;;6.30;;
69569;SDS011;56781;42.292;23.146;2022-10-28T06:24:59;43.10;;;13.45;;
69569;SDS011;56781;42.292;23.146;2022-10-28T06:27:28;36.87;;;12.10;;
69569;SDS011;56781;42.292;23.146;2022-10-28T06:29:55;21.52;;;8.63;;
69569;SDS011;56781;42.292;23.146;2022-10-28T06:32:22;20.50;;;6.80;;
69569;SDS011;56781;42.292;23.146;2022-10-28T06:34:49;14.52;;;5.70;;
69569;SDS011;56781;42.292;23.146;2022-10-28T06:37:16;14.48;;;4.90;;
69569;SDS011;56781;42.292;23.146;2022-10-28T06:39:43;13.83;;;4.87;;
69569;SDS011;56781;42.292;23.146;2022-10-28T06:42:11;14.05;;;5.13;;
69569;SDS011;56781;42.292;23.146;2022-10-28T06:44:46;9.63;;;4.47;;
69569;SDS011;56781;42.292;23.146;2022-10-28T06:47:13;9.75;;;5.25;;
69569;SDS011;56781;42.292;23.146;2022-10-28T06:49:41;13.75;;;4.70;;
69569;SDS011;56781;42.292;23.146;2022-10-28T06:52:15;8.33;;;3.87;;
69569;SDS011;56781;42.292;23.146;2022-10-28T06:54:42;9.98;;;4.00;;
69569;SDS011;56781;42.292;23.146;2022-10-28T06:57:10;10.15;;;4.00;;
69569;SDS011;56781;42.292;23.146;2022-10-28T06:59:39;9.50;;;4.00;;
69569;SDS011;56781;42.292;23.146;2022-10-28T07:02:12;9.95;;;3.70;;
69569;SDS011;56781;42.292;23.146;2022-10-28T07:04:41;8.03;;;3.40;;
69569;SDS011;56781;42.292;23.146;2022-10-28T07:07:09;7.30;;;3.90;;
69569;SDS011;56781;42.292;23.146;2022-10-28T07:09:38;8.45;;;3.80;;
69569;SDS011;56781;42.292;23.146;2022-10-28T07:12:05;8.35;;;3.80;;
69569;SDS011;56781;42.292;23.146;2022-10-28T07:14:33;10.20;;;4.65;;
69569;SDS011;56781;42.292;23.146;2022-10-28T07:17:00;10.02;;;4.07;;
69569;SDS011;56781;42.292;23.146;2022-10-28T07:19:27;9.60;;;3.63;;
69569;SDS011;56781;42.292;23.146;2022-10-28T07:21:54;11.50;;;4.38;;
69569;SDS011;56781;42.292;23.146;2022-10-28T07:24:22;7.15;;;3.97;;
69569;SDS011;56781;42.292;23.146;2022-10-28T07:26:49;10.13;;;3.85;;
69569;SDS011;56781;42.292;23.146;2022-10-28T07:29:22;10.18;;;4.20;;
69569;SDS011;56781;42.292;23.146;2022-10-28T07:31:52;7.70;;;3.80;;
69569;SDS011;56781;42.292;23.146;2022-10-28T07:34:22;10.98;;;4.13;;
69569;SDS011;56781;42.292;23.146;2022-10-28T07:36:53;8.90;;;4.25;;
69569;SDS011;56781;42.292;23.146;2022-10-28T07:39:22;9.95;;;4.13;;
69569;SDS011;56781;42.292;23.146;2022-10-28T07:41:48;7.90;;;4.20;;
69569;SDS011;56781;42.292;23.146;2022-10-28T07:44:15;7.00;;;3.78;;
69569;SDS011;56781;42.292;23.146;2022-10-28T07:46:42;7.47;;;4.03;;
69569;SDS011;56781;42.292;23.146;2022-10-28T07:49:09;8.63;;;4.18;;
69569;SDS011;56781;42.292;23.146;2022-10-28T07:51:36;7.82;;;4.30;;
69569;SDS011;56781;42.292;23.146;2022-10-28T07:54:07;8.38;;;3.60;;
69569;SDS011;56781;42.292;23.146;2022-10-28T07:56:35;11.65;;;3.85;;
69569;SDS011;56781;42.292;23.146;2022-10-28T07:59:02;8.68;;;3.70;;
69569;SDS011;56781;42.292;23.146;2022-10-28T08:01:29;8.75;;;3.70;;
69569;SDS011;56781;42.292;23.146;2022-10-28T08:03:58;10.27;;;4.35;;
69569;SDS011;56781;42.292;23.146;2022-10-28T08:06:25;8.70;;;3.67;;
69569;SDS011;56781;42.292;23.146;2022-10-28T08:08:53;9.52;;;3.67;;
69569;SDS011;56781;42.292;23.146;2022-10-28T08:11:21;8.40;;;3.60;;
69569;SDS011;56781;42.292;23.146;2022-10-28T08:13:49;11.20;;;3.92;;
69569;SDS011;56781;42.292;23.146;2022-10-28T08:16:17;11.45;;;4.53;;
69569;SDS011;56781;42.292;23.146;2022-10-28T08:18:46;8.40;;;4.18;;
69569;SDS011;56781;42.292;23.146;2022-10-28T08:21:13;8.18;;;4.22;;
69569;SDS011;56781;42.292;23.146;2022-10-28T08:23:41;9.98;;;4.38;;
69569;SDS011;56781;42.292;23.146;2022-10-28T08:26:12;9.77;;;4.15;;
69569;SDS011;56781;42.292;23.146;2022-10-28T08:28:40;7.20;;;3.70;;
69569;SDS011;56781;42.292;23.146;2022-10-28T08:31:08;7.95;;;4.10;;
69569;SDS011;56781;42.292;23.146;2022-10-28T08:33:40;8.43;;;3.35;;
69569;SDS011;56781;42.292;23.146;2022-10-28T08:36:11;9.35;;;3.90;;
69569;SDS011;56781;42.292;23.146;2022-10-28T08:38:41;9.48;;;3.90;;
69569;SDS011;56781;42.292;23.146;2022-10-28T08:41:27;7.18;;;3.22;;
69569;SDS011;56781;42.292;23.146;2022-10-28T08:49:22;8.00;;;3.47;;
69569;SDS011;56781;42.292;23.146;2022-10-28T08:51:57;8.75;;;3.58;;
69569;SDS011;56781;42.292;23.146;2022-10-28T08:54:42;8.93;;;3.45;;
69569;SDS011;56781;42.292;23.146;2022-10-28T08:57:15;6.13;;;3.08;;
69569;SDS011;56781;42.292;23.146;2022-10-28T08:59:46;7.55;;;3.20;;
69569;SDS011;56781;42.292;23.146;2022-10-28T09:05:06;7.78;;;3.53;;
69569;SDS011;56781;42.292;23.146;2022-10-28T09:07:45;8.40;;;3.15;;
69569;SDS011;56781;42.292;23.146;2022-10-28T09:10:13;7.25;;;3.25;;
69569;SDS011;56781;42.292;23.146;2022-10-28T09:18:29;11.18;;;3.10;;
69569;SDS011;56781;42.292;23.146;2022-10-28T09:21:01;7.47;;;3.60;;
69569;SDS011;56781;42.292;23.146;2022-10-28T09:23:33;8.48;;;3.35;;
69569;SDS011;56781;42.292;23.146;2022-10-28T09:26:19;8.70;;;3.30;;
69569;SDS011;56781;42.292;23.146;2022-10-28T09:31:52;6.75;;;2.88;;
69569;SDS011;56781;42.292;23.146;2022-10-28T09:37:20;7.97;;;3.20;;
69569;SDS011;56781;42.292;23.146;2022-10-28T09:40:04;7.45;;;3.03;;
69569;SDS011;56781;42.292;23.146;2022-10-28T09:42:45;6.95;;;3.13;;
69569;SDS011;56781;42.292;23.146;2022-10-28T09:45:34;8.10;;;3.00;;
69569;SDS011;56781;42.292;23.146;2022-10-28T09:50:48;6.20;;;2.70;;
69569;SDS011;56781;42.292;23.146;2022-10-28T09:56:01;8.20;;;2.80;;
69569;SDS011;56781;42.292;23.146;2022-10-28T09:58:30;6.82;;;2.88;;
69569;SDS011;56781;42.292;23.146;2022-10-28T10:00:59;7.30;;;3.10;;
69569;SDS011;56781;42.292;23.146;2022-10-28T10:03:27;13.23;;;8.43;;
69569;SDS011;56781;42.292;23.146;2022-10-28T10:05:54;6.45;;;3.25;;
69569;SDS011;56781;42.292;23.146;2022-10-28T10:08:23;8.25;;;3.03;;
69569;SDS011;56781;42.292;23.146;2022-10-28T10:10:51;6.38;;;2.80;;
69569;SDS011;56781;42.292;23.146;2022-10-28T10:13:28;9.25;;;4.40;;
69569;SDS011;56781;42.292;23.146;2022-10-28T10:16:03;17.55;;;8.38;;
69569;SDS011;56781;42.292;23.146;2022-10-28T10:18:37;10.27;;;4.82;;
69569;SDS011;56781;42.292;23.146;2022-10-28T10:21:12;11.65;;;3.92;;
69569;SDS011;56781;42.292;23.146;2022-10-28T10:23:39;10.48;;;2.95;;
69569;SDS011;56781;42.292;23.146;2022-10-28T10:26:07;7.15;;;2.88;;
69569;SDS011;56781;42.292;23.146;2022-10-28T10:28:45;8.23;;;3.08;;
69569;SDS011;56781;42.292;23.146;2022-10-28T10:31:18;7.00;;;2.78;;
69569;SDS011;56781;42.292;23.146;2022-10-28T10:33:49;6.95;;;2.90;;
69569;SDS011;56781;42.292;23.146;2022-10-28T10:36:19;9.88;;;2.70;;
69569;SDS011;56781;42.292;23.146;2022-10-28T10:38:53;5.45;;;2.63;;
69569;SDS011;56781;42.292;23.146;2022-10-28T10:41:34;7.30;;;3.20;;
69569;SDS011;56781;42.292;23.146;2022-10-28T10:49:41;8.57;;;2.47;;
69569;SDS011;56781;42.292;23.146;2022-10-28T10:52:18;5.68;;;2.45;;
69569;SDS011;56781;42.292;23.146;2022-10-28T10:55:26;5.50;;;2.88;;
69569;SDS011;56781;42.292;23.146;2022-10-28T10:57:48;6.72;;;2.55;;
69569;SDS011;56781;42.292;23.146;2022-10-28T11:00:15;6.85;;;2.70;;
69569;SDS011;56781;42.292;23.146;2022-10-28T11:02:46;5.03;;;2.47;;
69569;SDS011;56781;42.292;23.146;2022-10-28T11:05:20;6.03;;;2.45;;
69569;SDS011;56781;42.292;23.146;2022-10-28T11:07:57;10.60;;;3.08;;
69569;SDS011;56781;42.292;23.146;2022-10-28T11:10:30;8.85;;;2.53;;
69569;SDS011;56781;42.292;23.146;2022-10-28T11:13:22;5.55;;;2.50;;
69569;SDS011;56781;42.292;23.146;2022-10-28T11:16:02;7.45;;;2.70;;
69569;SDS011;56781;42.292;23.146;2022-10-28T11:18:37;8.52;;;3.88;;
69569;SDS011;56781;42.292;23.146;2022-10-28T11:21:26;6.60;;;2.10;;
69569;SDS011;56781;42.292;23.146;2022-10-28T11:26:59;4.50;;;1.98;;
69569;SDS011;56781;42.292;23.146;2022-10-28T11:29:37;4.07;;;1.80;;
69569;SDS011;56781;42.292;23.146;2022-10-28T11:32:25;5.18;;;2.00;;
69569;SDS011;56781;42.292;23.146;2022-10-28T11:43:57;4.93;;;1.98;;
69569;SDS011;56781;42.292;23.146;2022-10-28T11:52:05;5.93;;;2.00;;
69569;SDS011;56781;42.292;23.146;2022-10-28T11:57:23;4.57;;;1.73;;
69569;SDS011;56781;42.292;23.146;2022-10-28T12:00:13;3.33;;;2.13;;
69569;SDS011;56781;42.292;23.146;2022-10-28T12:06:07;3.58;;;1.88;;
69569;SDS011;56781;42.292;23.146;2022-10-28T12:16:57;4.15;;;1.80;;
69569;SDS011;56781;42.292;23.146;2022-10-28T12:19:33;5.18;;;1.98;;
69569;SDS011;56781;42.292;23.146;2022-10-28T12:22:43;3.53;;;1.77;;
69569;SDS011;56781;42.292;23.146;2022-10-28T12:25:11;4.28;;;1.70;;
69569;SDS011;56781;42.292;23.146;2022-10-28T12:27:42;3.75;;;1.90;;
69569;SDS011;56781;42.292;23.146;2022-10-28T12:30:20;5.13;;;1.60;;
69569;SDS011;56781;42.292;23.146;2022-10-28T12:33:11;3.75;;;1.88;;
69569;SDS011;56781;42.292;23.146;2022-10-28T12:35:42;4.32;;;1.70;;
69569;SDS011;56781;42.292;23.146;2022-10-28T12:38:15;3.20;;;1.70;;
69569;SDS011;56781;42.292;23.146;2022-10-28T12:40:45;3.63;;;1.77;;
69569;SDS011;56781;42.292;23.146;2022-10-28T12:43:33;4.10;;;1.83;;
69569;SDS011;56781;42.292;23.146;2022-10-28T12:46:05;4.40;;;1.90;;
69569;SDS011;56781;42.292;23.146;2022-10-28T12:48:49;5.95;;;1.80;;
69569;SDS011;56781;42.292;23.146;2022-10-28T12:51:29;4.32;;;1.80;;
69569;SDS011;56781;42.292;23.146;2022-10-28T12:59:44;3.60;;;1.70;;
69569;SDS011;56781;42.292;23.146;2022-10-28T13:02:19;4.57;;;1.77;;
69569;SDS011;56781;42.292;23.146;2022-10-28T13:04:56;5.32;;;1.65;;
69569;SDS011;56781;42.292;23.146;2022-10-28T13:13:03;3.53;;;1.88;;
69569;SDS011;56781;42.292;23.146;2022-10-28T13:15:54;5.22;;;1.70;;
69569;SDS011;56781;42.292;23.146;2022-10-28T13:18:31;11.50;;;2.25;;
69569;SDS011;56781;42.292;23.146;2022-10-28T13:24:02;5.45;;;1.90;;
69569;SDS011;56781;42.292;23.146;2022-10-28T13:26:34;4.55;;;1.80;;
69569;SDS011;56781;42.292;23.146;2022-10-28T13:29:03;5.40;;;1.92;;
69569;SDS011;56781;42.292;23.146;2022-10-28T13:31:39;3.53;;;1.83;;
69569;SDS011;56781;42.292;23.146;2022-10-28T13:34:10;4.70;;;1.90;;
69569;SDS011;56781;42.292;23.146;2022-10-28T13:36:43;5.25;;;1.95;;
69569;SDS011;56781;42.292;23.146;2022-10-28T13:39:54;4.22;;;2.00;;
69569;SDS011;56781;42.292;23.146;2022-10-28T13:47:33;4.28;;;1.90;;
69569;SDS011;56781;42.292;23.146;2022-10-28T13:52:35;4.25;;;2.20;;
69569;SDS011;56781;42.292;23.146;2022-10-28T13:55:23;7.10;;;2.45;;
69569;SDS011;56781;42.292;23.146;2022-10-28T13:57:56;8.23;;;2.28;;
69569;SDS011;56781;42.292;23.146;2022-10-28T14:07:59;5.10;;;1.98;;
69569;SDS011;56781;42.292;23.146;2022-10-28T14:10:30;5.57;;;2.15;;
69569;SDS011;56781;42.292;23.146;2022-10-28T14:13:00;6.25;;;2.15;;
69569;SDS011;56781;42.292;23.146;2022-10-28T14:15:31;4.93;;;2.22;;
69569;SDS011;56781;42.292;23.146;2022-10-28T14:21:00;4.95;;;2.10;;
69569;SDS011;56781;42.292;23.146;2022-10-28T14:26:00;4.60;;;2.30;;
69569;SDS011;56781;42.292;23.146;2022-10-28T14:44:09;16.63;;;5.05;;
69569;SDS011;56781;42.292;23.146;2022-10-28T14:49:47;10.20;;;4.25;;
69569;SDS011;56781;42.292;23.146;2022-10-28T14:52:41;9.25;;;4.00;;
69569;SDS011;56781;42.292;23.146;2022-10-28T14:55:20;9.65;;;4.05;;
69569;SDS011;56781;42.292;23.146;2022-10-28T14:57:51;7.57;;;3.60;;
69569;SDS011;56781;42.292;23.146;2022-10-28T15:00:19;10.43;;;4.10;;
69569;SDS011;56781;42.292;23.146;2022-10-28T15:02:51;18.83;;;7.30;;
69569;SDS011;56781;42.292;23.146;2022-10-28T15:05:21;13.70;;;6.45;;
69569;SDS011;56781;42.292;23.146;2022-10-28T15:07:55;12.95;;;6.03;;
69569;SDS011;56781;42.292;23.146;2022-10-28T15:10:29;11.32;;;5.07;;
69569;SDS011;56781;42.292;23.146;2022-10-28T15:13:03;47.13;;;15.45;;
69569;SDS011;56781;42.292;23.146;2022-10-28T15:15:31;42.55;;;13.05;;
69569;SDS011;56781;42.292;23.146;2022-10-28T15:18:00;66.97;;;18.73;;
69569;SDS011;56781;42.292;23.146;2022-10-28T15:20:32;45.63;;;14.48;;
69569;SDS011;56781;42.292;23.146;2022-10-28T15:23:15;54.42;;;16.83;;
69569;SDS011;56781;42.292;23.146;2022-10-28T15:25:44;44.40;;;14.30;;
69569;SDS011;56781;42.292;23.146;2022-10-28T15:28:12;46.20;;;16.30;;
69569;SDS011;56781;42.292;23.146;2022-10-28T15:30:40;40.67;;;17.35;;
69569;SDS011;56781;42.292;23.146;2022-10-28T15:33:18;14.70;;;5.90;;
69569;SDS011;56781;42.292;23.146;2022-10-28T15:35:53;5.32;;;2.80;;
69569;SDS011;56781;42.292;23.146;2022-10-28T15:38:44;9.52;;;3.00;;
69569;SDS011;56781;42.292;23.146;2022-10-28T15:43:54;5.47;;;3.00;;
69569;SDS011;56781;42.292;23.146;2022-10-28T15:46:23;7.57;;;3.67;;
69569;SDS011;56781;42.292;23.146;2022-10-28T15:48:52;7.03;;;3.22;;
69569;SDS011;56781;42.292;23.146;2022-10-28T15:51:23;8.32;;;3.60;;
69569;SDS011;56781;42.292;23.146;2022-10-28T15:53:51;11.85;;;4.60;;
69569;SDS011;56781;42.292;23.146;2022-10-28T15:56:51;13.93;;;5.68;;
69569;SDS011;56781;42.292;23.146;2022-10-28T15:59:23;8.05;;;3.60;;
69569;SDS011;56781;42.292;23.146;2022-10-28T16:01:51;6.97;;;3.35;;
69569;SDS011;56781;42.292;23.146;2022-10-28T16:04:41;7.38;;;3.38;;
69569;SDS011;56781;42.292;23.146;2022-10-28T16:07:11;8.02;;;3.30;;
69569;SDS011;56781;42.292;23.146;2022-10-28T16:09:46;7.05;;;3.20;;
69569;SDS011;56781;42.292;23.146;2022-10-28T16:12:15;7.32;;;3.13;;
69569;SDS011;56781;42.292;23.146;2022-10-28T16:14:57;6.50;;;3.13;;
69569;SDS011;56781;42.292;23.146;2022-10-28T16:17:28;7.25;;;2.97;;
69569;SDS011;56781;42.292;23.146;2022-10-28T16:19:59;7.32;;;2.65;;
69569;SDS011;56781;42.292;23.146;2022-10-28T16:22:30;4.53;;;2.35;;
69569;SDS011;56781;42.292;23.146;2022-10-28T16:25:00;5.95;;;2.40;;
69569;SDS011;56781;42.292;23.146;2022-10-28T16:27:31;5.03;;;2.30;;
69569;SDS011;56781;42.292;23.146;2022-10-28T16:29:58;4.95;;;2.00;;
69569;SDS011;56781;42.292;23.146;2022-10-28T16:32:31;4.63;;;2.03;;
69569;SDS011;56781;42.292;23.146;2022-10-28T16:35:02;4.47;;;2.10;;
69569;SDS011;56781;42.292;23.146;2022-10-28T16:37:41;6.40;;;2.33;;
69569;SDS011;56781;42.292;23.146;2022-10-28T16:40:14;5.13;;;2.20;;
69569;SDS011;56781;42.292;23.146;2022-10-28T16:43:02;4.90;;;2.00;;
69569;SDS011;56781;42.292;23.146;2022-10-28T16:45:29;4.47;;;2.10;;
69569;SDS011;56781;42.292;23.146;2022-10-28T16:47:56;5.88;;;2.08;;
69569;SDS011;56781;42.292;23.146;2022-10-28T16:50:23;4.27;;;2.17;;
69569;SDS011;56781;42.292;23.146;2022-10-28T16:52:50;6.53;;;2.40;;
69569;SDS011;56781;42.292;23.146;2022-10-28T16:55:19;5.15;;;2.30;;
69569;SDS011;56781;42.292;23.146;2022-10-28T16:57:49;7.40;;;2.58;;
69569;SDS011;56781;42.292;23.146;2022-10-28T17:00:16;7.93;;;2.58;;
69569;SDS011;56781;42.292;23.146;2022-10-28T17:02:44;5.38;;;2.50;;
69569;SDS011;56781;42.292;23.146;2022-10-28T17:05:20;6.88;;;3.05;;
69569;SDS011;56781;42.292;23.146;2022-10-28T17:07:49;4.93;;;2.30;;
69569;SDS011;56781;42.292;23.146;2022-10-28T17:10:16;4.95;;;2.20;;
69569;SDS011;56781;42.292;23.146;2022-10-28T17:12:44;4.53;;;2.20;;
69569;SDS011;56781;42.292;23.146;2022-10-28T17:15:11;5.10;;;2.50;;
69569;SDS011;56781;42.292;23.146;2022-10-28T17:17:38;6.47;;;2.90;;
69569;SDS011;56781;42.292;23.146;2022-10-28T17:20:05;5.53;;;2.30;;
69569;SDS011;56781;42.292;23.146;2022-10-28T17:22:32;5.78;;;2.42;;
69569;SDS011;56781;42.292;23.146;2022-10-28T17:25:02;8.38;;;3.88;;
69569;SDS011;56781;42.292;23.146;2022-10-28T17:27:29;6.57;;;3.57;;
69569;SDS011;56781;42.292;23.146;2022-10-28T17:29:56;6.47;;;3.15;;
69569;SDS011;56781;42.292;23.146;2022-10-28T17:32:28;6.53;;;3.38;;